Yawata — JG5592 — position and weather

sailwx.info

Track history (hours):
 
Tides and Currents Weather Stations Pressure Air Temp Water Temp Dewpoint Dewpoint Depression Visibility Wind Speed Wind Dir Waves Ship Positions

Yawata

Last reported at 2018-Apr-25 22:00 UTC. Time now 2018-Apr-25 22:02 UTC.
Position N 35°35' E 139°47'.

Length 40 m; draft 2.8 m.

Type: Tug. MMSI: 431100843.

Date/timePositionNaut miles runAvg speedWind from/ knotsBaromVisibWave heightAir tempDewpointWater temp
2018-Apr-25 22:00N 35°35' E 139°47'0 0.8
2018-Apr-25 21:30N 35°35' E 139°47'4 7.4
2018-Apr-25 20:58N 35°39' E 139°46'0 0.0
2018-Apr-25 20:30N 35°39' E 139°46'0 0.0
2018-Apr-25 20:00N 35°39' E 139°46'0 0.0
2018-Apr-25 19:27N 35°39' E 139°46'0 0.0
2018-Apr-25 18:58N 35°39' E 139°46'0 0.0
2018-Apr-25 18:30N 35°39' E 139°46'0 0.0
2018-Apr-25 18:00N 35°39' E 139°46'0 0.0
2018-Apr-25 17:30N 35°39' E 139°46'0 0.0
2018-Apr-25 16:59N 35°39' E 139°46'0 0.0
2018-Apr-25 16:29N 35°39' E 139°46'0 0.0
2018-Apr-25 16:00N 35°39' E 139°46'0 0.0
2018-Apr-25 15:27N 35°39' E 139°46'0 0.0
2018-Apr-25 15:00N 35°39' E 139°46'0 0.0
2018-Apr-25 14:30N 35°39' E 139°46'0 0.0
2018-Apr-25 14:00N 35°39' E 139°46'0 0.0
2018-Apr-25 13:30N 35°39' E 139°46'0 0.0
2018-Apr-25 13:00N 35°39' E 139°46'0 0.0
2018-Apr-25 12:30N 35°39' E 139°46'0 0.0
2018-Apr-25 12:00N 35°39' E 139°46'0 0.0
2018-Apr-25 11:30N 35°39' E 139°46'0 0.0
2018-Apr-25 11:00N 35°39' E 139°46'0 0.0
2018-Apr-25 10:30N 35°39' E 139°46'0 0.0
2018-Apr-25 09:57N 35°39' E 139°46'3 5.8
2018-Apr-25 09:30N 35°36' E 139°47'0 0.9
2018-Apr-25 09:00N 35°36' E 139°47'2 3.6
2018-Apr-25 08:30N 35°35' E 139°48'4 8.5
2018-Apr-25 08:00N 35°38' E 139°46'1 1.1
2018-Apr-25 07:29N 35°39' E 139°46'0 0.0
2018-Apr-25 07:00N 35°39' E 139°46'0 0.0
2018-Apr-25 06:28N 35°39' E 139°46'0 0.0
2018-Apr-25 06:00N 35°39' E 139°46'0 0.0
2018-Apr-25 05:30N 35°39' E 139°46'0 0.0
2018-Apr-25 04:55N 35°39' E 139°46'0 0.0
2018-Apr-25 04:28N 35°39' E 139°46'0 0.0
2018-Apr-25 03:57N 35°39' E 139°46'0 0.0
2018-Apr-25 03:27N 35°39' E 139°46'3 5.6
2018-Apr-25 03:00N 35°36' E 139°46'1 1.8
2018-Apr-25 02:30N 35°37' E 139°46'2 3.4
2018-Apr-25 02:00N 35°39' E 139°46'0 0.5
2018-Apr-25 01:30N 35°38' E 139°46'1 1.2
2018-Apr-25 01:00N 35°38' E 139°46'0 0.1
2018-Apr-24 19:57N 35°38' E 139°46'0 0.0
2018-Apr-24 19:30N 35°38' E 139°46'0 0.0
2018-Apr-24 18:57N 35°38' E 139°46'0 0.0
2018-Apr-24 18:29N 35°38' E 139°46'0 0.0
2018-Apr-24 17:56N 35°38' E 139°46'0 0.0
2018-Apr-24 17:29N 35°38' E 139°46'0 0.0
2018-Apr-24 17:00N 35°38' E 139°46'0 0.0
2018-Apr-24 16:30N 35°38' E 139°46'0 0.0
2018-Apr-24 16:00N 35°38' E 139°46'0 0.0
2018-Apr-24 15:30N 35°38' E 139°46'0 0.0
2018-Apr-24 15:00N 35°38' E 139°46'0 0.0
2018-Apr-24 14:26N 35°38' E 139°46'0 0.0
2018-Apr-24 13:56N 35°38' E 139°46'0 0.0
2018-Apr-24 13:12N 35°38' E 139°46'0 0.0
2018-Apr-24 12:57N 35°38' E 139°46'0 0.0
2018-Apr-24 12:29N 35°38' E 139°46'0 0.0
2018-Apr-24 10:47N 35°38' E 139°46'0 0.0
2018-Apr-24 10:24N 35°38' E 139°46'0 0.0
2018-Apr-24 09:43N 35°38' E 139°46'2 7.3
2018-Apr-24 09:30N 35°37' E 139°46'1 1.9
2018-Apr-24 09:01N 35°36' E 139°47'2 3.5
2018-Apr-24 08:30N 35°37' E 139°46'1 1.5
2018-Apr-24 08:00N 35°38' E 139°46'0 0.0
2018-Apr-24 07:30N 35°38' E 139°46'0 0.0
2018-Apr-24 07:00N 35°38' E 139°46'0 0.0
2018-Apr-24 06:30N 35°38' E 139°46'0 0.0
2018-Apr-24 05:59N 35°38' E 139°46'0 0.0
2018-Apr-24 05:30N 35°38' E 139°46'0 0.0
2018-Apr-24 04:58N 35°38' E 139°46'0 0.0
2018-Apr-24 04:30N 35°38' E 139°46'0 0.0
2018-Apr-24 04:00N 35°38' E 139°46'0 0.0
2018-Apr-24 03:30N 35°38' E 139°46'0 0.0
2018-Apr-24 03:00N 35°38' E 139°46'0 0.0
2018-Apr-24 02:30N 35°38' E 139°46'0 0.0
2018-Apr-24 02:00N 35°38' E 139°46'0 0.0
2018-Apr-24 01:29N 35°38' E 139°46'0 0.0
2018-Apr-24 00:58N 35°38' E 139°46'0 0.0
2018-Apr-24 00:26N 35°38' E 139°46'0 0.0
2018-Apr-23 23:54N 35°38' E 139°46'0 0.2
2018-Apr-23 23:31N 35°38' E 139°46'2 3.4
2018-Apr-23 23:00N 35°36' E 139°46'1 1.1
2018-Apr-23 22:30N 35°36' E 139°46'3 5.5
2018-Apr-23 22:00N 35°34' E 139°49'3 6.2
2018-Apr-23 21:29N 35°36' E 139°46'2 3.7
2018-Apr-23 21:00N 35°38' E 139°46'0 0.0
2018-Apr-23 20:30N 35°38' E 139°46'0 0.0
2018-Apr-23 20:00N 35°38' E 139°46'0 0.0
2018-Apr-23 19:30N 35°38' E 139°46'0 0.0
2018-Apr-23 18:55N 35°38' E 139°46'0 0.0
2018-Apr-23 18:30N 35°38' E 139°46'0 0.0
2018-Apr-23 17:54N 35°38' E 139°46'0 0.0
2018-Apr-23 17:29N 35°38' E 139°46'0 0.0
2018-Apr-23 16:58N 35°38' E 139°46'0 0.0
2018-Apr-23 16:30N 35°38' E 139°46'0 0.0
2018-Apr-23 16:00N 35°38' E 139°46'0 0.0
2018-Apr-23 15:31N 35°38' E 139°46'0 0.0
2018-Apr-23 15:00N 35°38' E 139°46'0 0.0
2018-Apr-23 14:27N 35°38' E 139°46'0 0.0
2018-Apr-23 13:58N 35°38' E 139°46'0 0.0
2018-Apr-23 13:30N 35°38' E 139°46'0 0.0
2018-Apr-23 13:00N 35°38' E 139°46'0 0.0
2018-Apr-23 12:30N 35°38' E 139°46'0 0.0
2018-Apr-23 12:00N 35°38' E 139°46'0 0.0
2018-Apr-23 11:30N 35°38' E 139°46'0 0.0
2018-Apr-23 11:00N 35°38' E 139°46'0 0.0
2018-Apr-23 10:30N 35°38' E 139°46'0 0.0
2018-Apr-23 10:00N 35°38' E 139°46'0 0.0
2018-Apr-23 09:18N 35°38' E 139°46'0 0.0
2018-Apr-23 09:00N 35°38' E 139°46'0 0.0
2018-Apr-23 08:30N 35°38' E 139°46'0 0.0
2018-Apr-23 08:00N 35°38' E 139°46'0 0.0
2018-Apr-23 07:30N 35°38' E 139°46'0 0.0
2018-Apr-23 06:56N 35°38' E 139°46'0 0.0
2018-Apr-23 06:30N 35°38' E 139°46'0 0.0
2018-Apr-23 06:00N 35°38' E 139°46'0 0.0
2018-Apr-23 05:30N 35°38' E 139°46'0 0.0
2018-Apr-23 05:00N 35°38' E 139°46'0 0.0
2018-Apr-23 04:30N 35°38' E 139°46'0 0.0
2018-Apr-23 04:00N 35°38' E 139°46'0 0.0
2018-Apr-23 03:30N 35°38' E 139°46'0 0.0
2018-Apr-23 03:00N 35°38' E 139°46'0 0.0
2018-Apr-23 02:30N 35°38' E 139°46'0 0.0
2018-Apr-23 02:00N 35°38' E 139°46'0 0.0
2018-Apr-23 01:30N 35°38' E 139°46'0 0.0
2018-Apr-23 00:58N 35°38' E 139°46'0 0.0
2018-Apr-23 00:27N 35°38' E 139°46'0 0.0
2018-Apr-23 00:00N 35°38' E 139°46'0 0.0
2018-Apr-22 23:30N 35°38' E 139°46'0 0.0
2018-Apr-22 23:00N 35°38' E 139°46'0 0.0
2018-Apr-22 22:30N 35°38' E 139°46'0 0.0
2018-Apr-22 22:00N 35°38' E 139°46'0 0.0
2018-Apr-22 21:30N 35°38' E 139°46'0 0.0
2018-Apr-22 21:00N 35°38' E 139°46'0 0.0
2018-Apr-22 20:30N 35°38' E 139°46'0 0.0
2018-Apr-22 20:00N 35°38' E 139°46'0 0.0
2018-Apr-22 19:28N 35°38' E 139°46'0 0.0
2018-Apr-22 19:00N 35°38' E 139°46'0 0.0
2018-Apr-22 18:29N 35°38' E 139°46'0 0.0
2018-Apr-22 18:00N 35°38' E 139°46'0 0.0
2018-Apr-22 17:30N 35°38' E 139°46'0 0.0
2018-Apr-22 17:00N 35°38' E 139°46'0 0.0
2018-Apr-22 16:30N 35°38' E 139°46'0 0.0
2018-Apr-22 16:00N 35°38' E 139°46'0 0.0
2018-Apr-22 15:30N 35°38' E 139°46'0 0.0
2018-Apr-22 15:00N 35°38' E 139°46'0 0.0
2018-Apr-22 14:30N 35°38' E 139°46'0 0.0
2018-Apr-22 14:00N 35°38' E 139°46'0 0.0
2018-Apr-22 13:27N 35°38' E 139°46'0 0.0
2018-Apr-22 13:00N 35°38' E 139°46'0 0.0
2018-Apr-22 12:27N 35°38' E 139°46'0 0.0
2018-Apr-22 12:00N 35°38' E 139°46'0 0.0
2018-Apr-22 11:30N 35°38' E 139°46'0 0.0
2018-Apr-22 11:00N 35°38' E 139°46'0 0.0
2018-Apr-22 10:30N 35°38' E 139°46'0 0.0
2018-Apr-22 10:00N 35°38' E 139°46'0 0.0
2018-Apr-22 09:30N 35°38' E 139°46'0 0.0
2018-Apr-22 09:00N 35°38' E 139°46'0 0.0
2018-Apr-22 08:30N 35°38' E 139°46'0 0.0
2018-Apr-22 08:00N 35°38' E 139°46'0 0.0
2018-Apr-22 07:30N 35°38' E 139°46'0 0.0
2018-Apr-22 07:00N 35°38' E 139°46'0 0.0
2018-Apr-22 06:29N 35°38' E 139°46'0 0.0
2018-Apr-22 05:59N 35°38' E 139°46'0 0.0
2018-Apr-22 05:30N 35°38' E 139°46'0 0.0
2018-Apr-22 05:00N 35°38' E 139°46'0 0.0
2018-Apr-22 04:28N 35°38' E 139°46'0 0.0
2018-Apr-22 03:58N 35°38' E 139°46'0 0.0
2018-Apr-22 03:30N 35°38' E 139°46'0 0.0
2018-Apr-22 03:00N 35°38' E 139°46'0 0.0
2018-Apr-22 02:30N 35°38' E 139°46'0 0.0
2018-Apr-22 01:58N 35°38' E 139°46'0 0.0
2018-Apr-22 01:30N 35°38' E 139°46'0 0.0
2018-Apr-22 00:58N 35°38' E 139°46'0 0.0
2018-Apr-22 00:30N 35°38' E 139°46'0 0.0
2018-Apr-22 00:00N 35°38' E 139°46'0 0.0
2018-Apr-21 23:30N 35°38' E 139°46'0 0.0
2018-Apr-21 23:00N 35°38' E 139°46'0 0.0
2018-Apr-21 22:30N 35°38' E 139°46'0 0.0
2018-Apr-21 22:00N 35°38' E 139°46'0 0.0
2018-Apr-21 21:30N 35°38' E 139°46'0 0.0
2018-Apr-21 21:00N 35°38' E 139°46'1 2.1
2018-Apr-21 20:30N 35°37' E 139°46'1 1.6
2018-Apr-21 19:59N 35°36' E 139°46'1 2.6
2018-Apr-21 19:30N 35°38' E 139°46'1 1.2
2018-Apr-21 19:00N 35°38' E 139°46'0 0.0
2018-Apr-21 18:30N 35°38' E 139°46'0 0.0
2018-Apr-21 18:00N 35°38' E 139°46'0 0.0
2018-Apr-21 17:08N 35°38' E 139°46'0 0.0
2018-Apr-21 16:58N 35°38' E 139°46'0 0.0
2018-Apr-21 15:54N 35°38' E 139°46'0 0.0
2018-Apr-21 15:20N 35°38' E 139°46'0 0.0
2018-Apr-21 14:57N 35°38' E 139°46'0 0.0
2018-Apr-21 14:29N 35°38' E 139°46'0 0.0
2018-Apr-21 14:00N 35°38' E 139°46'0 0.0
2018-Apr-21 13:29N 35°38' E 139°46'0 0.0
2018-Apr-21 12:57N 35°38' E 139°46'0 0.0
2018-Apr-21 12:30N 35°38' E 139°46'0 0.9
2018-Apr-21 11:59N 35°38' E 139°46'2 3.1
2018-Apr-21 11:30N 35°37' E 139°47'2 3.5
2018-Apr-21 11:00N 35°38' E 139°46'0 0.3
2018-Apr-21 10:30N 35°38' E 139°46'2 3.2
2018-Apr-21 10:00N 35°37' E 139°47'0 0.7
2018-Apr-21 09:31N 35°36' E 139°47'4 7.3
2018-Apr-21 09:00N 35°34' E 139°50'0 0.7
2018-Apr-21 08:31N 35°33' E 139°49'5 9.7
2018-Apr-21 08:00N 35°37' E 139°46'1 0.2
2018-Apr-21 03:20N 35°38' E 139°46'0 0.0
2018-Apr-21 02:53N 35°38' E 139°46'0 0.0
2018-Apr-21 02:28N 35°38' E 139°46'0 0.0
2018-Apr-21 01:58N 35°38' E 139°46'0 0.0
2018-Apr-21 01:28N 35°38' E 139°46'0 0.0
2018-Apr-21 00:56N 35°38' E 139°46'0 0.0
2018-Apr-21 00:30N 35°38' E 139°46'0 0.0
2018-Apr-21 00:00N 35°38' E 139°46'0 0.0
2018-Apr-20 23:29N 35°38' E 139°46'1 1.7
2018-Apr-20 23:00N 35°37' E 139°46'1 2.8
2018-Apr-20 22:30N 35°36' E 139°47'3 6.4
2018-Apr-20 22:00N 35°34' E 139°49'0 0.6
2018-Apr-20 21:30N 35°34' E 139°49'3 6.2
2018-Apr-20 21:00N 35°36' E 139°47'1 1.8
2018-Apr-20 20:30N 35°37' E 139°46'1 2.2
2018-Apr-20 19:59N 35°38' E 139°46'0 0.0
2018-Apr-20 19:29N 35°38' E 139°46'2 4.7
2018-Apr-20 18:59N 35°36' E 139°47'2 3.4
2018-Apr-20 18:30N 35°37' E 139°46'1 1.5
2018-Apr-20 17:34N 35°39' E 139°46'0 0.0
2018-Apr-20 17:29N 35°39' E 139°46'0 0.0
2018-Apr-20 17:00N 35°39' E 139°46'0 0.0
2018-Apr-20 16:20N 35°39' E 139°46'0 0.0
2018-Apr-20 15:45N 35°39' E 139°46'0 0.0
2018-Apr-20 15:27N 35°39' E 139°46'0 0.0
2018-Apr-20 15:00N 35°39' E 139°46'0 0.0
2018-Apr-20 14:30N 35°39' E 139°46'0 0.0
2018-Apr-20 14:00N 35°39' E 139°46'0 0.0
2018-Apr-20 13:25N 35°39' E 139°46'0 0.0
2018-Apr-20 13:00N 35°39' E 139°46'0 0.0
2018-Apr-20 12:28N 35°39' E 139°46'0 0.0
2018-Apr-20 12:00N 35°39' E 139°46'0 0.0
2018-Apr-20 11:22N 35°39' E 139°46'0 0.0
2018-Apr-20 10:53N 35°39' E 139°46'0 0.0
2018-Apr-20 10:17N 35°39' E 139°46'0 0.0
2018-Apr-20 08:04N 35°39' E 139°46'0 0.0
2018-Apr-20 07:48N 35°39' E 139°46'0 0.0
2018-Apr-20 07:26N 35°39' E 139°46'0 0.0
2018-Apr-20 06:53N 35°39' E 139°46'0 0.0
2018-Apr-20 06:18N 35°39' E 139°46'0 0.0
2018-Apr-20 05:58N 35°39' E 139°46'0 0.0
2018-Apr-20 05:27N 35°39' E 139°46'3 5.9
2018-Apr-20 05:00N 35°36' E 139°47'0 0.6
2018-Apr-20 04:30N 35°36' E 139°47'3 6.1
2018-Apr-20 04:00N 35°34' E 139°50'1 1.0
2018-Apr-20 03:30N 35°34' E 139°49'4 9.1
2018-Apr-20 03:00N 35°38' E 139°46'1 1.2
2018-Apr-20 02:29N 35°38' E 139°46'0 0.0
2018-Apr-20 02:00N 35°38' E 139°46'0 0.0
2018-Apr-20 01:30N 35°38' E 139°46'0 0.0
2018-Apr-20 00:59N 35°38' E 139°46'0 0.0
2018-Apr-20 00:29N 35°38' E 139°46'0 0.0
2018-Apr-20 00:00N 35°38' E 139°46'0 0.0
2018-Apr-19 23:30N 35°38' E 139°46'0 0.0
2018-Apr-19 23:00N 35°38' E 139°46'0 0.0
2018-Apr-19 22:24N 35°38' E 139°46'0 0.0
2018-Apr-19 13:37N 35°38' E 139°46'0 0.0
2018-Apr-19 13:25N 35°38' E 139°46'4 8.6
2018-Apr-19 13:00N 35°35' E 139°48'2 3.9
2018-Apr-19 12:29N 35°37' E 139°46'2 0.8
2018-Apr-19 10:22N 35°38' E 139°46'2 6.6
2018-Apr-19 10:00N 35°36' E 139°47'1 2.0
2018-Apr-19 09:30N 35°35' E 139°48'0 0.7
2018-Apr-19 09:00N 35°35' E 139°47'0 0.9
2018-Apr-19 08:30N 35°35' E 139°47'0 0.0
2018-Apr-19 08:01N 35°35' E 139°47'0 0.0
2018-Apr-19 07:30N 35°35' E 139°47'0 0.9
2018-Apr-19 06:59N 35°36' E 139°46'2 4.0
2018-Apr-19 06:29N 35°38' E 139°46'1 0.7
2018-Apr-19 05:04N 35°39' E 139°46'0 0.0
2018-Apr-19 02:59N 35°39' E 139°46'0 0.0
2018-Apr-19 00:33N 35°39' E 139°46'0 0.0
2018-Apr-19 00:24N 35°39' E 139°46'0 0.0
2018-Apr-18 23:56N 35°39' E 139°46'1 2.8
2018-Apr-18 23:30N 35°37' E 139°46'2 4.1
2018-Apr-18 23:00N 35°36' E 139°48'0 1.0
2018-Apr-18 22:30N 35°36' E 139°47'2 3.0
2018-Apr-18 21:59N 35°34' E 139°48'0 0.4
2018-Apr-18 21:29N 35°34' E 139°48'3 5.2
2018-Apr-18 21:00N 35°37' E 139°47'1 2.8
2018-Apr-18 20:30N 35°38' E 139°46'1 2.0
2018-Apr-18 19:57N 35°39' E 139°46'0 0.0
2018-Apr-18 19:29N 35°39' E 139°46'0 0.0
2018-Apr-18 19:00N 35°39' E 139°46'0 0.0
2018-Apr-18 18:30N 35°39' E 139°46'0 0.0
2018-Apr-18 17:59N 35°39' E 139°46'0 0.0
2018-Apr-18 17:30N 35°39' E 139°46'0 0.0
2018-Apr-18 17:00N 35°39' E 139°46'0 0.0
2018-Apr-18 16:30N 35°39' E 139°46'0 0.0
2018-Apr-18 16:00N 35°39' E 139°46'0 0.0
2018-Apr-18 15:21N 35°39' E 139°46'0 0.0
2018-Apr-18 15:00N 35°39' E 139°46'0 0.0
2018-Apr-18 14:28N 35°39' E 139°46'0 0.0
2018-Apr-18 14:00N 35°39' E 139°46'0 0.0
2018-Apr-18 13:30N 35°39' E 139°46'0 0.0
2018-Apr-18 13:00N 35°39' E 139°46'0 0.0
2018-Apr-18 12:30N 35°39' E 139°46'0 0.0
2018-Apr-18 12:00N 35°39' E 139°46'0 0.0
2018-Apr-18 11:26N 35°39' E 139°46'0 0.0
2018-Apr-18 11:00N 35°39' E 139°46'0 0.0
2018-Apr-18 10:30N 35°39' E 139°46'0 0.0
2018-Apr-18 10:00N 35°39' E 139°46'0 0.0
2018-Apr-18 09:29N 35°39' E 139°46'2 5.0
2018-Apr-18 09:00N 35°37' E 139°46'0 0.8
2018-Apr-18 08:30N 35°37' E 139°46'1 2.6
2018-Apr-18 07:59N 35°38' E 139°46'0 0.0
2018-Apr-18 07:16N 35°38' E 139°46'2 7.5
2018-Apr-18 06:58N 35°36' E 139°47'0 0.9
2018-Apr-18 06:29N 35°37' E 139°47'2 4.0
2018-Apr-18 06:00N 35°38' E 139°46'0 0.0
2018-Apr-18 05:26N 35°38' E 139°46'0 0.0
2018-Apr-18 04:57N 35°38' E 139°46'0 0.0
2018-Apr-18 04:31N 35°38' E 139°46'0 0.0
2018-Apr-18 03:59N 35°38' E 139°46'0 0.0
2018-Apr-18 03:31N 35°38' E 139°46'0 0.0
2018-Apr-18 02:47N 35°38' E 139°46'0 0.0
2018-Apr-18 02:24N 35°38' E 139°46'0 0.0
2018-Apr-18 01:59N 35°38' E 139°46'1 2.0
2018-Apr-18 01:30N 35°37' E 139°46'2 3.3
2018-Apr-18 00:58N 35°36' E 139°47'3 5.8
2018-Apr-18 00:30N 35°34' E 139°49'4 8.5
2018-Apr-18 00:01N 35°37' E 139°46'1 2.3
2018-Apr-17 23:28N 35°38' E 139°46'0 0.0
2018-Apr-17 22:59N 35°38' E 139°46'0 0.0
2018-Apr-17 22:29N 35°38' E 139°46'0 0.0
2018-Apr-17 22:00N 35°38' E 139°46'0 0.0
2018-Apr-17 21:19N 35°38' E 139°46'0 0.0
2018-Apr-17 18:03N 35°38' E 139°46'0 0.0
2018-Apr-17 18:00N 35°38' E 139°46'0 0.0
2018-Apr-17 16:49N 35°38' E 139°46'0 0.0
2018-Apr-17 16:23N 35°38' E 139°46'0 0.0
2018-Apr-17 13:41N 35°38' E 139°46'0 0.0
2018-Apr-17 13:29N 35°38' E 139°46'0 0.0
2018-Apr-17 12:58N 35°38' E 139°46'0 0.0
2018-Apr-17 12:30N 35°38' E 139°46'0 0.0
2018-Apr-17 12:00N 35°38' E 139°46'0 0.0
2018-Apr-17 11:30N 35°38' E 139°46'0 0.0
2018-Apr-17 10:46N 35°38' E 139°46'0 0.0
2018-Apr-17 10:18N 35°38' E 139°46'0 0.0
2018-Apr-17 08:10N 35°38' E 139°46'0 0.0
2018-Apr-17 07:51N 35°38' E 139°46'0 0.0
2018-Apr-17 07:09N 35°38' E 139°46'0 0.0
2018-Apr-17 06:47N 35°38' E 139°46'0 0.0
2018-Apr-17 06:30N 35°38' E 139°46'0 0.0
2018-Apr-17 05:59N 35°38' E 139°46'0 0.0
2018-Apr-17 05:27N 35°38' E 139°46'0 0.0
2018-Apr-17 03:58N 35°38' E 139°46'0 0.0
2018-Apr-17 02:55N 35°38' E 139°46'0 0.0
2018-Apr-17 02:29N 35°38' E 139°46'0 0.0
2018-Apr-17 02:00N 35°38' E 139°46'0 0.0
2018-Apr-17 00:36N 35°38' E 139°46'0 0.0
2018-Apr-17 00:26N 35°38' E 139°46'0 0.0
2018-Apr-16 23:58N 35°38' E 139°46'0 0.0
2018-Apr-16 23:27N 35°38' E 139°46'0 0.0
2018-Apr-16 23:00N 35°38' E 139°46'0 0.0
2018-Apr-16 22:30N 35°38' E 139°46'0 0.0
2018-Apr-16 21:53N 35°38' E 139°46'0 0.0
2018-Apr-16 21:29N 35°38' E 139°46'0 0.0
2018-Apr-16 21:00N 35°38' E 139°46'0 0.0
2018-Apr-16 20:30N 35°38' E 139°46'0 0.0
2018-Apr-16 20:00N 35°38' E 139°46'0 0.0
2018-Apr-16 19:28N 35°38' E 139°46'0 0.0
2018-Apr-16 18:59N 35°38' E 139°46'0 0.0
2018-Apr-16 18:28N 35°38' E 139°46'0 0.0
2018-Apr-16 18:00N 35°38' E 139°46'0 0.0
2018-Apr-16 17:28N 35°38' E 139°46'0 0.0
2018-Apr-16 16:59N 35°38' E 139°46'0 0.0
2018-Apr-16 16:30N 35°38' E 139°46'0 0.0
2018-Apr-16 16:00N 35°38' E 139°46'0 0.0
2018-Apr-16 15:30N 35°38' E 139°46'0 0.0
2018-Apr-16 14:59N 35°38' E 139°46'0 0.0
2018-Apr-16 14:29N 35°38' E 139°46'0 0.0
2018-Apr-16 14:00N 35°38' E 139°46'0 0.0
2018-Apr-16 13:30N 35°38' E 139°46'0 0.0
2018-Apr-16 13:00N 35°38' E 139°46'0 0.0
2018-Apr-16 12:30N 35°38' E 139°46'0 0.0
2018-Apr-16 12:00N 35°38' E 139°46'0 0.0
2018-Apr-16 11:29N 35°38' E 139°46'0 0.0
2018-Apr-16 10:58N 35°38' E 139°46'0 0.0
2018-Apr-16 10:30N 35°38' E 139°46'0 0.0
2018-Apr-16 09:59N 35°38' E 139°46'0 0.0
2018-Apr-16 09:30N 35°38' E 139°46'0 0.0
2018-Apr-16 09:00N 35°38' E 139°46'0 0.0
2018-Apr-16 08:30N 35°38' E 139°46'0 0.0
2018-Apr-16 07:54N 35°38' E 139°46'0 0.0
2018-Apr-16 07:30N 35°38' E 139°46'0 0.0
2018-Apr-16 06:57N 35°38' E 139°46'0 0.0
2018-Apr-16 06:30N 35°38' E 139°46'0 0.0
2018-Apr-16 05:59N 35°38' E 139°46'2 4.0
2018-Apr-16 05:30N 35°36' E 139°46'1 1.9
2018-Apr-16 04:59N 35°36' E 139°47'1 1.1
2018-Apr-16 04:30N 35°35' E 139°47'1 1.4
2018-Apr-16 04:00N 35°35' E 139°47'0 0.0
2018-Apr-16 03:26N 35°35' E 139°47'0 0.0
2018-Apr-16 03:00N 35°35' E 139°47'0 0.0
2018-Apr-16 02:30N 35°35' E 139°47'0 0.0
2018-Apr-16 01:54N 35°35' E 139°47'1 1.5
2018-Apr-16 01:29N 35°36' E 139°46'2 3.7
2018-Apr-16 01:00N 35°35' E 139°48'2 4.9
2018-Apr-16 00:30N 35°37' E 139°46'2 3.3
2018-Apr-16 00:01N 35°38' E 139°46'0 0.0
2018-Apr-15 23:23N 35°38' E 139°46'0 0.0
2018-Apr-15 22:59N 35°38' E 139°46'0 0.0
2018-Apr-15 22:30N 35°38' E 139°46'  
Track history (hours):
 
Tides and Currents Weather Stations Pressure Air Temp Water Temp Dewpoint Dewpoint Depression Visibility Wind Speed Wind Dir Waves Ship Positions

Yawata

Last reported at 2018-Apr-25 22:00 UTC. Time now 2018-Apr-25 22:02 UTC.
Position N 35°35' E 139°47'.

Length 40 m; draft 2.8 m.

Type: Tug. MMSI: 431100843.

Date/timePositionNaut miles runAvg speedWind from/ knotsBaromVisibWave heightAir tempDewpointWater temp
2018-Apr-25 22:00N 35°35' E 139°47'0 0.8
2018-Apr-25 21:30N 35°35' E 139°47'4 7.4
2018-Apr-25 20:58N 35°39' E 139°46'0 0.0
2018-Apr-25 20:30N 35°39' E 139°46'0 0.0
2018-Apr-25 20:00N 35°39' E 139°46'0 0.0
2018-Apr-25 19:27N 35°39' E 139°46'0 0.0
2018-Apr-25 18:58N 35°39' E 139°46'0 0.0
2018-Apr-25 18:30N 35°39' E 139°46'0 0.0
2018-Apr-25 18:00N 35°39' E 139°46'0 0.0
2018-Apr-25 17:30N 35°39' E 139°46'0 0.0
2018-Apr-25 16:59N 35°39' E 139°46'0 0.0
2018-Apr-25 16:29N 35°39' E 139°46'0 0.0
2018-Apr-25 16:00N 35°39' E 139°46'0 0.0
2018-Apr-25 15:27N 35°39' E 139°46'0 0.0
2018-Apr-25 15:00N 35°39' E 139°46'0 0.0
2018-Apr-25 14:30N 35°39' E 139°46'0 0.0
2018-Apr-25 14:00N 35°39' E 139°46'0 0.0
2018-Apr-25 13:30N 35°39' E 139°46'0 0.0
2018-Apr-25 13:00N 35°39' E 139°46'0 0.0
2018-Apr-25 12:30N 35°39' E 139°46'0 0.0
2018-Apr-25 12:00N 35°39' E 139°46'0 0.0
2018-Apr-25 11:30N 35°39' E 139°46'0 0.0
2018-Apr-25 11:00N 35°39' E 139°46'0 0.0
2018-Apr-25 10:30N 35°39' E 139°46'0 0.0
2018-Apr-25 09:57N 35°39' E 139°46'3 5.8
2018-Apr-25 09:30N 35°36' E 139°47'0 0.9
2018-Apr-25 09:00N 35°36' E 139°47'2 3.6
2018-Apr-25 08:30N 35°35' E 139°48'4 8.5
2018-Apr-25 08:00N 35°38' E 139°46'1 1.1
2018-Apr-25 07:29N 35°39' E 139°46'0 0.0
2018-Apr-25 07:00N 35°39' E 139°46'0 0.0
2018-Apr-25 06:28N 35°39' E 139°46'0 0.0
2018-Apr-25 06:00N 35°39' E 139°46'0 0.0
2018-Apr-25 05:30N 35°39' E 139°46'0 0.0
2018-Apr-25 04:55N 35°39' E 139°46'0 0.0
2018-Apr-25 04:28N 35°39' E 139°46'0 0.0
2018-Apr-25 03:57N 35°39' E 139°46'0 0.0
2018-Apr-25 03:27N 35°39' E 139°46'3 5.6
2018-Apr-25 03:00N 35°36' E 139°46'1 1.8
2018-Apr-25 02:30N 35°37' E 139°46'2 3.4
2018-Apr-25 02:00N 35°39' E 139°46'0 0.5
2018-Apr-25 01:30N 35°38' E 139°46'1 1.2
2018-Apr-25 01:00N 35°38' E 139°46'0 0.1
2018-Apr-24 19:57N 35°38' E 139°46'0 0.0
2018-Apr-24 19:30N 35°38' E 139°46'0 0.0
2018-Apr-24 18:57N 35°38' E 139°46'0 0.0
2018-Apr-24 18:29N 35°38' E 139°46'0 0.0
2018-Apr-24 17:56N 35°38' E 139°46'0 0.0
2018-Apr-24 17:29N 35°38' E 139°46'0 0.0
2018-Apr-24 17:00N 35°38' E 139°46'0 0.0
2018-Apr-24 16:30N 35°38' E 139°46'0 0.0
2018-Apr-24 16:00N 35°38' E 139°46'0 0.0
2018-Apr-24 15:30N 35°38' E 139°46'0 0.0
2018-Apr-24 15:00N 35°38' E 139°46'0 0.0
2018-Apr-24 14:26N 35°38' E 139°46'0 0.0
2018-Apr-24 13:56N 35°38' E 139°46'0 0.0
2018-Apr-24 13:12N 35°38' E 139°46'0 0.0
2018-Apr-24 12:57N 35°38' E 139°46'0 0.0
2018-Apr-24 12:29N 35°38' E 139°46'0 0.0
2018-Apr-24 10:47N 35°38' E 139°46'0 0.0
2018-Apr-24 10:24N 35°38' E 139°46'0 0.0
2018-Apr-24 09:43N 35°38' E 139°46'2 7.3
2018-Apr-24 09:30N 35°37' E 139°46'1 1.9
2018-Apr-24 09:01N 35°36' E 139°47'2 3.5
2018-Apr-24 08:30N 35°37' E 139°46'1 1.5
2018-Apr-24 08:00N 35°38' E 139°46'0 0.0
2018-Apr-24 07:30N 35°38' E 139°46'0 0.0
2018-Apr-24 07:00N 35°38' E 139°46'0 0.0
2018-Apr-24 06:30N 35°38' E 139°46'0 0.0
2018-Apr-24 05:59N 35°38' E 139°46'0 0.0
2018-Apr-24 05:30N 35°38' E 139°46'0 0.0
2018-Apr-24 04:58N 35°38' E 139°46'0 0.0
2018-Apr-24 04:30N 35°38' E 139°46'0 0.0
2018-Apr-24 04:00N 35°38' E 139°46'0 0.0
2018-Apr-24 03:30N 35°38' E 139°46'0 0.0
2018-Apr-24 03:00N 35°38' E 139°46'0 0.0
2018-Apr-24 02:30N 35°38' E 139°46'0 0.0
2018-Apr-24 02:00N 35°38' E 139°46'0 0.0
2018-Apr-24 01:29N 35°38' E 139°46'0 0.0
2018-Apr-24 00:58N 35°38' E 139°46'0 0.0
2018-Apr-24 00:26N 35°38' E 139°46'0 0.0
2018-Apr-23 23:54N 35°38' E 139°46'0 0.2
2018-Apr-23 23:31N 35°38' E 139°46'2 3.4
2018-Apr-23 23:00N 35°36' E 139°46'1 1.1
2018-Apr-23 22:30N 35°36' E 139°46'3 5.5
2018-Apr-23 22:00N 35°34' E 139°49'3 6.2
2018-Apr-23 21:29N 35°36' E 139°46'2 3.7
2018-Apr-23 21:00N 35°38' E 139°46'0 0.0
2018-Apr-23 20:30N 35°38' E 139°46'0 0.0
2018-Apr-23 20:00N 35°38' E 139°46'0 0.0
2018-Apr-23 19:30N 35°38' E 139°46'0 0.0
2018-Apr-23 18:55N 35°38' E 139°46'0 0.0
2018-Apr-23 18:30N 35°38' E 139°46'0 0.0
2018-Apr-23 17:54N 35°38' E 139°46'0 0.0
2018-Apr-23 17:29N 35°38' E 139°46'0 0.0
2018-Apr-23 16:58N 35°38' E 139°46'0 0.0
2018-Apr-23 16:30N 35°38' E 139°46'0 0.0
2018-Apr-23 16:00N 35°38' E 139°46'0 0.0
2018-Apr-23 15:31N 35°38' E 139°46'0 0.0
2018-Apr-23 15:00N 35°38' E 139°46'0 0.0
2018-Apr-23 14:27N 35°38' E 139°46'0 0.0
2018-Apr-23 13:58N 35°38' E 139°46'0 0.0
2018-Apr-23 13:30N 35°38' E 139°46'0 0.0
2018-Apr-23 13:00N 35°38' E 139°46'0 0.0
2018-Apr-23 12:30N 35°38' E 139°46'0 0.0
2018-Apr-23 12:00N 35°38' E 139°46'0 0.0
2018-Apr-23 11:30N 35°38' E 139°46'0 0.0
2018-Apr-23 11:00N 35°38' E 139°46'0 0.0
2018-Apr-23 10:30N 35°38' E 139°46'0 0.0
2018-Apr-23 10:00N 35°38' E 139°46'0 0.0
2018-Apr-23 09:18N 35°38' E 139°46'0 0.0
2018-Apr-23 09:00N 35°38' E 139°46'0 0.0
2018-Apr-23 08:30N 35°38' E 139°46'0 0.0
2018-Apr-23 08:00N 35°38' E 139°46'0 0.0
2018-Apr-23 07:30N 35°38' E 139°46'0 0.0
2018-Apr-23 06:56N 35°38' E 139°46'0 0.0
2018-Apr-23 06:30N 35°38' E 139°46'0 0.0
2018-Apr-23 06:00N 35°38' E 139°46'0 0.0
2018-Apr-23 05:30N 35°38' E 139°46'0 0.0
2018-Apr-23 05:00N 35°38' E 139°46'0 0.0
2018-Apr-23 04:30N 35°38' E 139°46'0 0.0
2018-Apr-23 04:00N 35°38' E 139°46'0 0.0
2018-Apr-23 03:30N 35°38' E 139°46'0 0.0
2018-Apr-23 03:00N 35°38' E 139°46'0 0.0
2018-Apr-23 02:30N 35°38' E 139°46'0 0.0
2018-Apr-23 02:00N 35°38' E 139°46'0 0.0
2018-Apr-23 01:30N 35°38' E 139°46'0 0.0
2018-Apr-23 00:58N 35°38' E 139°46'0 0.0
2018-Apr-23 00:27N 35°38' E 139°46'0 0.0
2018-Apr-23 00:00N 35°38' E 139°46'0 0.0
2018-Apr-22 23:30N 35°38' E 139°46'0 0.0
2018-Apr-22 23:00N 35°38' E 139°46'0 0.0
2018-Apr-22 22:30N 35°38' E 139°46'0 0.0
2018-Apr-22 22:00N 35°38' E 139°46'0 0.0
2018-Apr-22 21:30N 35°38' E 139°46'0 0.0
2018-Apr-22 21:00N 35°38' E 139°46'0 0.0
2018-Apr-22 20:30N 35°38' E 139°46'0 0.0
2018-Apr-22 20:00N 35°38' E 139°46'0 0.0
2018-Apr-22 19:28N 35°38' E 139°46'0 0.0
2018-Apr-22 19:00N 35°38' E 139°46'0 0.0
2018-Apr-22 18:29N 35°38' E 139°46'0 0.0
2018-Apr-22 18:00N 35°38' E 139°46'0 0.0
2018-Apr-22 17:30N 35°38' E 139°46'0 0.0
2018-Apr-22 17:00N 35°38' E 139°46'0 0.0
2018-Apr-22 16:30N 35°38' E 139°46'0 0.0
2018-Apr-22 16:00N 35°38' E 139°46'0 0.0
2018-Apr-22 15:30N 35°38' E 139°46'0 0.0
2018-Apr-22 15:00N 35°38' E 139°46'0 0.0
2018-Apr-22 14:30N 35°38' E 139°46'0 0.0
2018-Apr-22 14:00N 35°38' E 139°46'0 0.0
2018-Apr-22 13:27N 35°38' E 139°46'0 0.0
2018-Apr-22 13:00N 35°38' E 139°46'0 0.0
2018-Apr-22 12:27N 35°38' E 139°46'0 0.0
2018-Apr-22 12:00N 35°38' E 139°46'0 0.0
2018-Apr-22 11:30N 35°38' E 139°46'0 0.0
2018-Apr-22 11:00N 35°38' E 139°46'0 0.0
2018-Apr-22 10:30N 35°38' E 139°46'0 0.0
2018-Apr-22 10:00N 35°38' E 139°46'0 0.0
2018-Apr-22 09:30N 35°38' E 139°46'0 0.0
2018-Apr-22 09:00N 35°38' E 139°46'0 0.0
2018-Apr-22 08:30N 35°38' E 139°46'0 0.0
2018-Apr-22 08:00N 35°38' E 139°46'0 0.0
2018-Apr-22 07:30N 35°38' E 139°46'0 0.0
2018-Apr-22 07:00N 35°38' E 139°46'0 0.0
2018-Apr-22 06:29N 35°38' E 139°46'0 0.0
2018-Apr-22 05:59N 35°38' E 139°46'0 0.0
2018-Apr-22 05:30N 35°38' E 139°46'0 0.0
2018-Apr-22 05:00N 35°38' E 139°46'0 0.0
2018-Apr-22 04:28N 35°38' E 139°46'0 0.0
2018-Apr-22 03:58N 35°38' E 139°46'0 0.0
2018-Apr-22 03:30N 35°38' E 139°46'0 0.0
2018-Apr-22 03:00N 35°38' E 139°46'0 0.0
2018-Apr-22 02:30N 35°38' E 139°46'0 0.0
2018-Apr-22 01:58N 35°38' E 139°46'0 0.0
2018-Apr-22 01:30N 35°38' E 139°46'0 0.0
2018-Apr-22 00:58N 35°38' E 139°46'0 0.0
2018-Apr-22 00:30N 35°38' E 139°46'0 0.0
2018-Apr-22 00:00N 35°38' E 139°46'0 0.0
2018-Apr-21 23:30N 35°38' E 139°46'0 0.0
2018-Apr-21 23:00N 35°38' E 139°46'0 0.0
2018-Apr-21 22:30N 35°38' E 139°46'0 0.0
2018-Apr-21 22:00N 35°38' E 139°46'0 0.0
2018-Apr-21 21:30N 35°38' E 139°46'0 0.0
2018-Apr-21 21:00N 35°38' E 139°46'1 2.1
2018-Apr-21 20:30N 35°37' E 139°46'1 1.6
2018-Apr-21 19:59N 35°36' E 139°46'1 2.6
2018-Apr-21 19:30N 35°38' E 139°46'1 1.2
2018-Apr-21 19:00N 35°38' E 139°46'0 0.0
2018-Apr-21 18:30N 35°38' E 139°46'0 0.0
2018-Apr-21 18:00N 35°38' E 139°46'0 0.0
2018-Apr-21 17:08N 35°38' E 139°46'0 0.0
2018-Apr-21 16:58N 35°38' E 139°46'0 0.0
2018-Apr-21 15:54N 35°38' E 139°46'0 0.0
2018-Apr-21 15:20N 35°38' E 139°46'0 0.0
2018-Apr-21 14:57N 35°38' E 139°46'0 0.0
2018-Apr-21 14:29N 35°38' E 139°46'0 0.0
2018-Apr-21 14:00N 35°38' E 139°46'0 0.0
2018-Apr-21 13:29N 35°38' E 139°46'0 0.0
2018-Apr-21 12:57N 35°38' E 139°46'0 0.0
2018-Apr-21 12:30N 35°38' E 139°46'0 0.9
2018-Apr-21 11:59N 35°38' E 139°46'2 3.1
2018-Apr-21 11:30N 35°37' E 139°47'2 3.5
2018-Apr-21 11:00N 35°38' E 139°46'0 0.3
2018-Apr-21 10:30N 35°38' E 139°46'2 3.2
2018-Apr-21 10:00N 35°37' E 139°47'0 0.7
2018-Apr-21 09:31N 35°36' E 139°47'4 7.3
2018-Apr-21 09:00N 35°34' E 139°50'0 0.7
2018-Apr-21 08:31N 35°33' E 139°49'5 9.7
2018-Apr-21 08:00N 35°37' E 139°46'1 0.2
2018-Apr-21 03:20N 35°38' E 139°46'0 0.0
2018-Apr-21 02:53N 35°38' E 139°46'0 0.0
2018-Apr-21 02:28N 35°38' E 139°46'0 0.0
2018-Apr-21 01:58N 35°38' E 139°46'0 0.0
2018-Apr-21 01:28N 35°38' E 139°46'0 0.0
2018-Apr-21 00:56N 35°38' E 139°46'0 0.0
2018-Apr-21 00:30N 35°38' E 139°46'0 0.0
2018-Apr-21 00:00N 35°38' E 139°46'0 0.0
2018-Apr-20 23:29N 35°38' E 139°46'1 1.7
2018-Apr-20 23:00N 35°37' E 139°46'1 2.8
2018-Apr-20 22:30N 35°36' E 139°47'3 6.4
2018-Apr-20 22:00N 35°34' E 139°49'0 0.6
2018-Apr-20 21:30N 35°34' E 139°49'3 6.2
2018-Apr-20 21:00N 35°36' E 139°47'1 1.8
2018-Apr-20 20:30N 35°37' E 139°46'1 2.2
2018-Apr-20 19:59N 35°38' E 139°46'0 0.0
2018-Apr-20 19:29N 35°38' E 139°46'2 4.7
2018-Apr-20 18:59N 35°36' E 139°47'2 3.4
2018-Apr-20 18:30N 35°37' E 139°46'1 1.5
2018-Apr-20 17:34N 35°39' E 139°46'0 0.0
2018-Apr-20 17:29N 35°39' E 139°46'0 0.0
2018-Apr-20 17:00N 35°39' E 139°46'0 0.0
2018-Apr-20 16:20N 35°39' E 139°46'0 0.0
2018-Apr-20 15:45N 35°39' E 139°46'0 0.0
2018-Apr-20 15:27N 35°39' E 139°46'0 0.0
2018-Apr-20 15:00N 35°39' E 139°46'0 0.0
2018-Apr-20 14:30N 35°39' E 139°46'0 0.0
2018-Apr-20 14:00N 35°39' E 139°46'0 0.0
2018-Apr-20 13:25N 35°39' E 139°46'0 0.0
2018-Apr-20 13:00N 35°39' E 139°46'0 0.0
2018-Apr-20 12:28N 35°39' E 139°46'0 0.0
2018-Apr-20 12:00N 35°39' E 139°46'0 0.0
2018-Apr-20 11:22N 35°39' E 139°46'0 0.0
2018-Apr-20 10:53N 35°39' E 139°46'0 0.0
2018-Apr-20 10:17N 35°39' E 139°46'0 0.0
2018-Apr-20 08:04N 35°39' E 139°46'0 0.0
2018-Apr-20 07:48N 35°39' E 139°46'0 0.0
2018-Apr-20 07:26N 35°39' E 139°46'0 0.0
2018-Apr-20 06:53N 35°39' E 139°46'0 0.0
2018-Apr-20 06:18N 35°39' E 139°46'0 0.0
2018-Apr-20 05:58N 35°39' E 139°46'0 0.0
2018-Apr-20 05:27N 35°39' E 139°46'3 5.9
2018-Apr-20 05:00N 35°36' E 139°47'0 0.6
2018-Apr-20 04:30N 35°36' E 139°47'3 6.1
2018-Apr-20 04:00N 35°34' E 139°50'1 1.0
2018-Apr-20 03:30N 35°34' E 139°49'4 9.1
2018-Apr-20 03:00N 35°38' E 139°46'1 1.2
2018-Apr-20 02:29N 35°38' E 139°46'0 0.0
2018-Apr-20 02:00N 35°38' E 139°46'0 0.0
2018-Apr-20 01:30N 35°38' E 139°46'0 0.0
2018-Apr-20 00:59N 35°38' E 139°46'0 0.0
2018-Apr-20 00:29N 35°38' E 139°46'0 0.0
2018-Apr-20 00:00N 35°38' E 139°46'0 0.0
2018-Apr-19 23:30N 35°38' E 139°46'0 0.0
2018-Apr-19 23:00N 35°38' E 139°46'0 0.0
2018-Apr-19 22:24N 35°38' E 139°46'0 0.0
2018-Apr-19 13:37N 35°38' E 139°46'0 0.0
2018-Apr-19 13:25N 35°38' E 139°46'4 8.6
2018-Apr-19 13:00N 35°35' E 139°48'2 3.9
2018-Apr-19 12:29N 35°37' E 139°46'2 0.8
2018-Apr-19 10:22N 35°38' E 139°46'2 6.6
2018-Apr-19 10:00N 35°36' E 139°47'1 2.0
2018-Apr-19 09:30N 35°35' E 139°48'0 0.7
2018-Apr-19 09:00N 35°35' E 139°47'0 0.9
2018-Apr-19 08:30N 35°35' E 139°47'0 0.0
2018-Apr-19 08:01N 35°35' E 139°47'0 0.0
2018-Apr-19 07:30N 35°35' E 139°47'0 0.9
2018-Apr-19 06:59N 35°36' E 139°46'2 4.0
2018-Apr-19 06:29N 35°38' E 139°46'1 0.7
2018-Apr-19 05:04N 35°39' E 139°46'0 0.0
2018-Apr-19 02:59N 35°39' E 139°46'0 0.0
2018-Apr-19 00:33N 35°39' E 139°46'0 0.0
2018-Apr-19 00:24N 35°39' E 139°46'0 0.0
2018-Apr-18 23:56N 35°39' E 139°46'1 2.8
2018-Apr-18 23:30N 35°37' E 139°46'2 4.1
2018-Apr-18 23:00N 35°36' E 139°48'0 1.0
2018-Apr-18 22:30N 35°36' E 139°47'2 3.0
2018-Apr-18 21:59N 35°34' E 139°48'0 0.4
2018-Apr-18 21:29N 35°34' E 139°48'3 5.2
2018-Apr-18 21:00N 35°37' E 139°47'1 2.8
2018-Apr-18 20:30N 35°38' E 139°46'1 2.0
2018-Apr-18 19:57N 35°39' E 139°46'0 0.0
2018-Apr-18 19:29N 35°39' E 139°46'0 0.0
2018-Apr-18 19:00N 35°39' E 139°46'0 0.0
2018-Apr-18 18:30N 35°39' E 139°46'0 0.0
2018-Apr-18 17:59N 35°39' E 139°46'0 0.0
2018-Apr-18 17:30N 35°39' E 139°46'0 0.0
2018-Apr-18 17:00N 35°39' E 139°46'0 0.0
2018-Apr-18 16:30N 35°39' E 139°46'0 0.0
2018-Apr-18 16:00N 35°39' E 139°46'0 0.0
2018-Apr-18 15:21N 35°39' E 139°46'0 0.0
2018-Apr-18 15:00N 35°39' E 139°46'0 0.0
2018-Apr-18 14:28N 35°39' E 139°46'0 0.0
2018-Apr-18 14:00N 35°39' E 139°46'0 0.0
2018-Apr-18 13:30N 35°39' E 139°46'0 0.0
2018-Apr-18 13:00N 35°39' E 139°46'0 0.0
2018-Apr-18 12:30N 35°39' E 139°46'0 0.0
2018-Apr-18 12:00N 35°39' E 139°46'0 0.0
2018-Apr-18 11:26N 35°39' E 139°46'0 0.0
2018-Apr-18 11:00N 35°39' E 139°46'0 0.0
2018-Apr-18 10:30N 35°39' E 139°46'0 0.0
2018-Apr-18 10:00N 35°39' E 139°46'0 0.0
2018-Apr-18 09:29N 35°39' E 139°46'2 5.0
2018-Apr-18 09:00N 35°37' E 139°46'0 0.8
2018-Apr-18 08:30N 35°37' E 139°46'1 2.6
2018-Apr-18 07:59N 35°38' E 139°46'0 0.0
2018-Apr-18 07:16N 35°38' E 139°46'2 7.5
2018-Apr-18 06:58N 35°36' E 139°47'0 0.9
2018-Apr-18 06:29N 35°37' E 139°47'2 4.0
2018-Apr-18 06:00N 35°38' E 139°46'0 0.0
2018-Apr-18 05:26N 35°38' E 139°46'0 0.0
2018-Apr-18 04:57N 35°38' E 139°46'0 0.0
2018-Apr-18 04:31N 35°38' E 139°46'0 0.0
2018-Apr-18 03:59N 35°38' E 139°46'0 0.0
2018-Apr-18 03:31N 35°38' E 139°46'0 0.0
2018-Apr-18 02:47N 35°38' E 139°46'0 0.0
2018-Apr-18 02:24N 35°38' E 139°46'0 0.0
2018-Apr-18 01:59N 35°38' E 139°46'1 2.0
2018-Apr-18 01:30N 35°37' E 139°46'2 3.3
2018-Apr-18 00:58N 35°36' E 139°47'3 5.8
2018-Apr-18 00:30N 35°34' E 139°49'4 8.5
2018-Apr-18 00:01N 35°37' E 139°46'1 2.3
2018-Apr-17 23:28N 35°38' E 139°46'0 0.0
2018-Apr-17 22:59N 35°38' E 139°46'0 0.0
2018-Apr-17 22:29N 35°38' E 139°46'0 0.0
2018-Apr-17 22:00N 35°38' E 139°46'0 0.0
2018-Apr-17 21:19N 35°38' E 139°46'0 0.0
2018-Apr-17 18:03N 35°38' E 139°46'0 0.0
2018-Apr-17 18:00N 35°38' E 139°46'0 0.0
2018-Apr-17 16:49N 35°38' E 139°46'0 0.0
2018-Apr-17 16:23N 35°38' E 139°46'0 0.0
2018-Apr-17 13:41N 35°38' E 139°46'0 0.0
2018-Apr-17 13:29N 35°38' E 139°46'0 0.0
2018-Apr-17 12:58N 35°38' E 139°46'0 0.0
2018-Apr-17 12:30N 35°38' E 139°46'0 0.0
2018-Apr-17 12:00N 35°38' E 139°46'0 0.0
2018-Apr-17 11:30N 35°38' E 139°46'0 0.0
2018-Apr-17 10:46N 35°38' E 139°46'0 0.0
2018-Apr-17 10:18N 35°38' E 139°46'0 0.0
2018-Apr-17 08:10N 35°38' E 139°46'0 0.0
2018-Apr-17 07:51N 35°38' E 139°46'0 0.0
2018-Apr-17 07:09N 35°38' E 139°46'0 0.0
2018-Apr-17 06:47N 35°38' E 139°46'0 0.0
2018-Apr-17 06:30N 35°38' E 139°46'0 0.0
2018-Apr-17 05:59N 35°38' E 139°46'0 0.0
2018-Apr-17 05:27N 35°38' E 139°46'0 0.0
2018-Apr-17 03:58N 35°38' E 139°46'0 0.0
2018-Apr-17 02:55N 35°38' E 139°46'0 0.0
2018-Apr-17 02:29N 35°38' E 139°46'0 0.0
2018-Apr-17 02:00N 35°38' E 139°46'0 0.0
2018-Apr-17 00:36N 35°38' E 139°46'0 0.0
2018-Apr-17 00:26N 35°38' E 139°46'0 0.0
2018-Apr-16 23:58N 35°38' E 139°46'0 0.0
2018-Apr-16 23:27N 35°38' E 139°46'0 0.0
2018-Apr-16 23:00N 35°38' E 139°46'0 0.0
2018-Apr-16 22:30N 35°38' E 139°46'0 0.0
2018-Apr-16 21:53N 35°38' E 139°46'0 0.0
2018-Apr-16 21:29N 35°38' E 139°46'0 0.0
2018-Apr-16 21:00N 35°38' E 139°46'0 0.0
2018-Apr-16 20:30N 35°38' E 139°46'0 0.0
2018-Apr-16 20:00N 35°38' E 139°46'0 0.0
2018-Apr-16 19:28N 35°38' E 139°46'0 0.0
2018-Apr-16 18:59N 35°38' E 139°46'0 0.0
2018-Apr-16 18:28N 35°38' E 139°46'0 0.0
2018-Apr-16 18:00N 35°38' E 139°46'0 0.0
2018-Apr-16 17:28N 35°38' E 139°46'0 0.0
2018-Apr-16 16:59N 35°38' E 139°46'0 0.0
2018-Apr-16 16:30N 35°38' E 139°46'0 0.0
2018-Apr-16 16:00N 35°38' E 139°46'0 0.0
2018-Apr-16 15:30N 35°38' E 139°46'0 0.0
2018-Apr-16 14:59N 35°38' E 139°46'0 0.0
2018-Apr-16 14:29N 35°38' E 139°46'0 0.0
2018-Apr-16 14:00N 35°38' E 139°46'0 0.0
2018-Apr-16 13:30N 35°38' E 139°46'0 0.0
2018-Apr-16 13:00N 35°38' E 139°46'0 0.0
2018-Apr-16 12:30N 35°38' E 139°46'0 0.0
2018-Apr-16 12:00N 35°38' E 139°46'0 0.0
2018-Apr-16 11:29N 35°38' E 139°46'0 0.0
2018-Apr-16 10:58N 35°38' E 139°46'0 0.0
2018-Apr-16 10:30N 35°38' E 139°46'0 0.0
2018-Apr-16 09:59N 35°38' E 139°46'0 0.0
2018-Apr-16 09:30N 35°38' E 139°46'0 0.0
2018-Apr-16 09:00N 35°38' E 139°46'0 0.0
2018-Apr-16 08:30N 35°38' E 139°46'0 0.0
2018-Apr-16 07:54N 35°38' E 139°46'0 0.0
2018-Apr-16 07:30N 35°38' E 139°46'0 0.0
2018-Apr-16 06:57N 35°38' E 139°46'0 0.0
2018-Apr-16 06:30N 35°38' E 139°46'0 0.0
2018-Apr-16 05:59N 35°38' E 139°46'2 4.0
2018-Apr-16 05:30N 35°36' E 139°46'1 1.9
2018-Apr-16 04:59N 35°36' E 139°47'1 1.1
2018-Apr-16 04:30N 35°35' E 139°47'1 1.4
2018-Apr-16 04:00N 35°35' E 139°47'0 0.0
2018-Apr-16 03:26N 35°35' E 139°47'0 0.0
2018-Apr-16 03:00N 35°35' E 139°47'0 0.0
2018-Apr-16 02:30N 35°35' E 139°47'0 0.0
2018-Apr-16 01:54N 35°35' E 139°47'1 1.5
2018-Apr-16 01:29N 35°36' E 139°46'2 3.7
2018-Apr-16 01:00N 35°35' E 139°48'2 4.9
2018-Apr-16 00:30N 35°37' E 139°46'2 3.3
2018-Apr-16 00:01N 35°38' E 139°46'0 0.0
2018-Apr-15 23:23N 35°38' E 139°46'0 0.0
2018-Apr-15 22:59N 35°38' E 139°46'0 0.0
2018-Apr-15 22:30N 35°38' E 139°46'  

Dump ship's entire track history